sensor_id;sensor_type;location;lat;lon;timestamp;P1;durP1;ratioP1;P2;durP2;ratioP2
39448;SDS011;25151;45.566;9.382;2022-12-11T00:02:29;9.88;;;5.95;;
39448;SDS011;25151;45.566;9.382;2022-12-11T00:05:30;8.40;;;5.47;;
39448;SDS011;25151;45.566;9.382;2022-12-11T00:08:31;7.60;;;5.22;;
39448;SDS011;25151;45.566;9.382;2022-12-11T00:11:31;7.22;;;5.78;;
39448;SDS011;25151;45.566;9.382;2022-12-11T00:14:32;6.75;;;5.63;;
39448;SDS011;25151;45.566;9.382;2022-12-11T00:17:33;6.35;;;5.32;;
39448;SDS011;25151;45.566;9.382;2022-12-11T00:20:34;8.38;;;5.75;;
39448;SDS011;25151;45.566;9.382;2022-12-11T00:23:36;8.05;;;5.60;;
39448;SDS011;25151;45.566;9.382;2022-12-11T00:26:39;6.07;;;4.80;;
39448;SDS011;25151;45.566;9.382;2022-12-11T00:29:39;6.80;;;5.53;;
39448;SDS011;25151;45.566;9.382;2022-12-11T00:32:40;9.65;;;5.85;;
39448;SDS011;25151;45.566;9.382;2022-12-11T00:35:45;7.00;;;5.80;;
39448;SDS011;25151;45.566;9.382;2022-12-11T00:38:46;7.05;;;5.90;;
39448;SDS011;25151;45.566;9.382;2022-12-11T00:41:48;7.45;;;6.30;;
39448;SDS011;25151;45.566;9.382;2022-12-11T00:44:49;8.65;;;6.45;;
39448;SDS011;25151;45.566;9.382;2022-12-11T00:47:50;6.47;;;5.43;;
39448;SDS011;25151;45.566;9.382;2022-12-11T00:50:50;7.38;;;5.93;;
39448;SDS011;25151;45.566;9.382;2022-12-11T00:53:51;6.82;;;5.10;;
39448;SDS011;25151;45.566;9.382;2022-12-11T00:56:54;6.45;;;5.55;;
39448;SDS011;25151;45.566;9.382;2022-12-11T00:59:55;6.03;;;5.07;;
39448;SDS011;25151;45.566;9.382;2022-12-11T01:02:55;6.82;;;4.97;;
39448;SDS011;25151;45.566;9.382;2022-12-11T01:05:56;6.85;;;5.57;;
39448;SDS011;25151;45.566;9.382;2022-12-11T01:08:57;6.45;;;5.45;;
39448;SDS011;25151;45.566;9.382;2022-12-11T01:12:16;5.88;;;4.97;;
39448;SDS011;25151;45.566;9.382;2022-12-11T01:15:18;6.05;;;4.65;;
39448;SDS011;25151;45.566;9.382;2022-12-11T01:18:19;5.75;;;5.00;;
39448;SDS011;25151;45.566;9.382;2022-12-11T01:21:20;6.40;;;5.28;;
39448;SDS011;25151;45.566;9.382;2022-12-11T01:24:20;7.60;;;5.68;;
39448;SDS011;25151;45.566;9.382;2022-12-11T01:27:21;6.63;;;5.18;;
39448;SDS011;25151;45.566;9.382;2022-12-11T01:30:23;5.95;;;5.35;;
39448;SDS011;25151;45.566;9.382;2022-12-11T01:33:25;6.18;;;5.07;;
39448;SDS011;25151;45.566;9.382;2022-12-11T01:36:26;6.00;;;5.22;;
39448;SDS011;25151;45.566;9.382;2022-12-11T01:39:26;6.90;;;5.97;;
39448;SDS011;25151;45.566;9.382;2022-12-11T01:42:27;6.72;;;5.55;;
39448;SDS011;25151;45.566;9.382;2022-12-11T01:45:37;6.63;;;5.47;;
39448;SDS011;25151;45.566;9.382;2022-12-11T01:48:39;6.45;;;4.32;;
39448;SDS011;25151;45.566;9.382;2022-12-11T01:51:45;6.50;;;5.00;;
39448;SDS011;25151;45.566;9.382;2022-12-11T01:54:51;8.48;;;5.53;;
39448;SDS011;25151;45.566;9.382;2022-12-11T01:57:52;6.80;;;5.38;;
39448;SDS011;25151;45.566;9.382;2022-12-11T02:00:53;6.25;;;5.03;;
39448;SDS011;25151;45.566;9.382;2022-12-11T02:03:54;6.28;;;5.30;;
39448;SDS011;25151;45.566;9.382;2022-12-11T02:06:56;5.82;;;5.22;;
39448;SDS011;25151;45.566;9.382;2022-12-11T02:09:57;7.88;;;5.13;;
39448;SDS011;25151;45.566;9.382;2022-12-11T02:13:04;5.85;;;4.85;;
39448;SDS011;25151;45.566;9.382;2022-12-11T02:16:54;6.60;;;5.45;;
39448;SDS011;25151;45.566;9.382;2022-12-11T02:19:59;7.32;;;5.78;;
39448;SDS011;25151;45.566;9.382;2022-12-11T02:26:50;5.90;;;5.00;;
39448;SDS011;25151;45.566;9.382;2022-12-11T02:30:27;5.90;;;4.68;;
39448;SDS011;25151;45.566;9.382;2022-12-11T02:33:38;5.53;;;4.28;;
39448;SDS011;25151;45.566;9.382;2022-12-11T02:36:49;5.85;;;5.05;;
39448;SDS011;25151;45.566;9.382;2022-12-11T02:39:54;5.90;;;5.30;;
39448;SDS011;25151;45.566;9.382;2022-12-11T02:42:56;5.50;;;4.78;;
39448;SDS011;25151;45.566;9.382;2022-12-11T02:46:02;6.40;;;5.25;;
39448;SDS011;25151;45.566;9.382;2022-12-11T02:49:05;7.28;;;5.63;;
39448;SDS011;25151;45.566;9.382;2022-12-11T02:52:08;6.25;;;4.95;;
39448;SDS011;25151;45.566;9.382;2022-12-11T02:55:12;6.65;;;5.35;;
39448;SDS011;25151;45.566;9.382;2022-12-11T02:58:21;5.50;;;4.72;;
39448;SDS011;25151;45.566;9.382;2022-12-11T03:01:26;5.93;;;5.03;;
39448;SDS011;25151;45.566;9.382;2022-12-11T03:04:27;6.88;;;4.90;;
39448;SDS011;25151;45.566;9.382;2022-12-11T03:07:32;5.80;;;4.90;;
39448;SDS011;25151;45.566;9.382;2022-12-11T03:10:35;6.43;;;4.88;;
39448;SDS011;25151;45.566;9.382;2022-12-11T03:13:36;6.93;;;4.72;;
39448;SDS011;25151;45.566;9.382;2022-12-11T03:16:39;7.10;;;5.10;;
39448;SDS011;25151;45.566;9.382;2022-12-11T03:19:49;5.60;;;5.00;;
39448;SDS011;25151;45.566;9.382;2022-12-11T03:26:11;6.18;;;5.10;;
39448;SDS011;25151;45.566;9.382;2022-12-11T03:29:19;5.40;;;4.90;;
39448;SDS011;25151;45.566;9.382;2022-12-11T03:32:23;5.28;;;4.70;;
39448;SDS011;25151;45.566;9.382;2022-12-11T03:35:32;5.50;;;4.30;;
39448;SDS011;25151;45.566;9.382;2022-12-11T03:38:46;5.73;;;5.03;;
39448;SDS011;25151;45.566;9.382;2022-12-11T03:41:51;5.63;;;4.60;;
39448;SDS011;25151;45.566;9.382;2022-12-11T03:44:54;5.50;;;5.00;;
39448;SDS011;25151;45.566;9.382;2022-12-11T03:47:58;5.30;;;4.80;;
39448;SDS011;25151;45.566;9.382;2022-12-11T03:51:05;5.95;;;5.35;;
39448;SDS011;25151;45.566;9.382;2022-12-11T03:54:06;5.85;;;5.25;;
39448;SDS011;25151;45.566;9.382;2022-12-11T03:57:09;4.90;;;4.25;;
39448;SDS011;25151;45.566;9.382;2022-12-11T04:00:15;5.53;;;4.55;;
39448;SDS011;25151;45.566;9.382;2022-12-11T04:03:18;7.50;;;5.45;;
39448;SDS011;25151;45.566;9.382;2022-12-11T04:06:19;5.45;;;4.72;;
39448;SDS011;25151;45.566;9.382;2022-12-11T04:09:20;5.20;;;4.68;;
39448;SDS011;25151;45.566;9.382;2022-12-11T04:12:21;5.63;;;4.93;;
39448;SDS011;25151;45.566;9.382;2022-12-11T04:15:21;5.32;;;4.80;;
39448;SDS011;25151;45.566;9.382;2022-12-11T04:18:23;6.05;;;4.90;;
39448;SDS011;25151;45.566;9.382;2022-12-11T04:21:44;5.88;;;4.68;;
39448;SDS011;25151;45.566;9.382;2022-12-11T04:25:04;5.10;;;4.35;;
39448;SDS011;25151;45.566;9.382;2022-12-11T04:28:06;5.47;;;4.85;;
39448;SDS011;25151;45.566;9.382;2022-12-11T04:31:11;5.18;;;4.63;;
39448;SDS011;25151;45.566;9.382;2022-12-11T04:34:13;5.25;;;4.55;;
39448;SDS011;25151;45.566;9.382;2022-12-11T04:37:13;5.50;;;4.93;;
39448;SDS011;25151;45.566;9.382;2022-12-11T04:40:15;5.22;;;4.72;;
39448;SDS011;25151;45.566;9.382;2022-12-11T04:43:16;5.50;;;4.75;;
39448;SDS011;25151;45.566;9.382;2022-12-11T04:46:18;5.15;;;4.60;;
39448;SDS011;25151;45.566;9.382;2022-12-11T04:49:21;5.70;;;5.00;;
39448;SDS011;25151;45.566;9.382;2022-12-11T04:52:22;5.10;;;4.53;;
39448;SDS011;25151;45.566;9.382;2022-12-11T04:55:24;5.28;;;4.65;;
39448;SDS011;25151;45.566;9.382;2022-12-11T04:58:26;6.07;;;4.50;;
39448;SDS011;25151;45.566;9.382;2022-12-11T05:01:27;5.13;;;4.40;;
39448;SDS011;25151;45.566;9.382;2022-12-11T05:04:31;6.22;;;4.57;;
39448;SDS011;25151;45.566;9.382;2022-12-11T05:07:33;5.55;;;4.43;;
39448;SDS011;25151;45.566;9.382;2022-12-11T05:10:34;4.63;;;4.15;;
39448;SDS011;25151;45.566;9.382;2022-12-11T05:13:35;5.38;;;4.68;;
39448;SDS011;25151;45.566;9.382;2022-12-11T05:16:35;4.90;;;4.22;;
39448;SDS011;25151;45.566;9.382;2022-12-11T05:19:36;5.25;;;4.75;;
39448;SDS011;25151;45.566;9.382;2022-12-11T05:22:37;4.43;;;4.00;;
39448;SDS011;25151;45.566;9.382;2022-12-11T05:25:38;4.97;;;3.83;;
39448;SDS011;25151;45.566;9.382;2022-12-11T05:28:38;4.82;;;4.07;;
39448;SDS011;25151;45.566;9.382;2022-12-11T05:31:39;6.93;;;5.05;;
39448;SDS011;25151;45.566;9.382;2022-12-11T05:34:40;4.82;;;4.25;;
39448;SDS011;25151;45.566;9.382;2022-12-11T05:37:41;5.03;;;4.28;;
39448;SDS011;25151;45.566;9.382;2022-12-11T05:40:42;4.88;;;4.10;;
39448;SDS011;25151;45.566;9.382;2022-12-11T05:43:43;4.85;;;4.30;;
39448;SDS011;25151;45.566;9.382;2022-12-11T05:46:44;4.13;;;3.65;;
39448;SDS011;25151;45.566;9.382;2022-12-11T05:49:45;5.07;;;4.30;;
39448;SDS011;25151;45.566;9.382;2022-12-11T05:52:46;4.63;;;3.92;;
39448;SDS011;25151;45.566;9.382;2022-12-11T05:55:48;4.57;;;4.13;;
39448;SDS011;25151;45.566;9.382;2022-12-11T05:58:49;10.07;;;4.57;;
39448;SDS011;25151;45.566;9.382;2022-12-11T06:01:50;4.75;;;4.28;;
39448;SDS011;25151;45.566;9.382;2022-12-11T06:04:51;6.57;;;4.57;;
39448;SDS011;25151;45.566;9.382;2022-12-11T06:07:51;5.88;;;4.22;;
39448;SDS011;25151;45.566;9.382;2022-12-11T06:10:53;4.95;;;4.30;;
39448;SDS011;25151;45.566;9.382;2022-12-11T06:13:53;4.50;;;3.97;;
39448;SDS011;25151;45.566;9.382;2022-12-11T06:16:54;5.15;;;4.00;;
39448;SDS011;25151;45.566;9.382;2022-12-11T06:19:55;4.65;;;4.15;;
39448;SDS011;25151;45.566;9.382;2022-12-11T06:22:56;4.32;;;3.85;;
39448;SDS011;25151;45.566;9.382;2022-12-11T06:25:56;4.32;;;3.92;;
39448;SDS011;25151;45.566;9.382;2022-12-11T06:28:57;4.55;;;4.03;;
39448;SDS011;25151;45.566;9.382;2022-12-11T06:31:59;6.57;;;3.95;;
39448;SDS011;25151;45.566;9.382;2022-12-11T06:35:00;4.75;;;4.05;;
39448;SDS011;25151;45.566;9.382;2022-12-11T06:38:00;4.88;;;4.38;;
39448;SDS011;25151;45.566;9.382;2022-12-11T06:41:05;4.80;;;3.75;;
39448;SDS011;25151;45.566;9.382;2022-12-11T06:44:06;5.30;;;4.05;;
39448;SDS011;25151;45.566;9.382;2022-12-11T06:47:07;4.45;;;4.05;;
39448;SDS011;25151;45.566;9.382;2022-12-11T06:50:08;5.35;;;3.70;;
39448;SDS011;25151;45.566;9.382;2022-12-11T06:53:10;4.75;;;3.78;;
39448;SDS011;25151;45.566;9.382;2022-12-11T06:56:12;5.10;;;3.58;;
39448;SDS011;25151;45.566;9.382;2022-12-11T06:59:14;7.13;;;4.00;;
39448;SDS011;25151;45.566;9.382;2022-12-11T07:02:16;5.90;;;3.88;;
39448;SDS011;25151;45.566;9.382;2022-12-11T07:05:18;4.97;;;4.30;;
39448;SDS011;25151;45.566;9.382;2022-12-11T07:08:19;6.85;;;3.90;;
39448;SDS011;25151;45.566;9.382;2022-12-11T07:11:20;6.32;;;3.90;;
39448;SDS011;25151;45.566;9.382;2022-12-11T07:14:21;5.22;;;3.40;;
39448;SDS011;25151;45.566;9.382;2022-12-11T07:17:22;4.57;;;3.95;;
39448;SDS011;25151;45.566;9.382;2022-12-11T07:20:23;4.13;;;3.67;;
39448;SDS011;25151;45.566;9.382;2022-12-11T07:23:25;4.60;;;4.07;;
39448;SDS011;25151;45.566;9.382;2022-12-11T07:26:27;5.15;;;2.92;;
39448;SDS011;25151;45.566;9.382;2022-12-11T07:29:28;5.72;;;3.40;;
39448;SDS011;25151;45.566;9.382;2022-12-11T07:32:29;5.80;;;3.65;;
39448;SDS011;25151;45.566;9.382;2022-12-11T07:35:29;4.47;;;3.70;;
39448;SDS011;25151;45.566;9.382;2022-12-11T07:38:30;5.35;;;3.22;;
39448;SDS011;25151;45.566;9.382;2022-12-11T07:41:31;5.93;;;3.83;;
39448;SDS011;25151;45.566;9.382;2022-12-11T07:44:32;5.20;;;3.33;;
39448;SDS011;25151;45.566;9.382;2022-12-11T07:47:32;4.75;;;3.38;;
39448;SDS011;25151;45.566;9.382;2022-12-11T07:50:34;4.97;;;3.60;;
39448;SDS011;25151;45.566;9.382;2022-12-11T07:53:37;4.70;;;4.10;;
39448;SDS011;25151;45.566;9.382;2022-12-11T07:56:38;3.78;;;3.38;;
39448;SDS011;25151;45.566;9.382;2022-12-11T07:59:38;4.10;;;3.67;;
39448;SDS011;25151;45.566;9.382;2022-12-11T08:02:39;3.50;;;3.08;;
39448;SDS011;25151;45.566;9.382;2022-12-11T08:05:45;4.10;;;3.70;;
39448;SDS011;25151;45.566;9.382;2022-12-11T08:08:49;4.03;;;3.63;;
39448;SDS011;25151;45.566;9.382;2022-12-11T08:11:50;3.88;;;3.35;;
39448;SDS011;25151;45.566;9.382;2022-12-11T08:14:51;4.10;;;3.70;;
39448;SDS011;25151;45.566;9.382;2022-12-11T08:17:52;3.83;;;3.42;;
39448;SDS011;25151;45.566;9.382;2022-12-11T08:20:52;4.70;;;3.70;;
39448;SDS011;25151;45.566;9.382;2022-12-11T08:23:56;5.88;;;3.92;;
39448;SDS011;25151;45.566;9.382;2022-12-11T08:26:57;5.20;;;3.38;;
39448;SDS011;25151;45.566;9.382;2022-12-11T08:29:57;9.63;;;4.28;;
39448;SDS011;25151;45.566;9.382;2022-12-11T08:32:58;7.15;;;4.05;;
39448;SDS011;25151;45.566;9.382;2022-12-11T08:36:02;4.13;;;3.72;;
39448;SDS011;25151;45.566;9.382;2022-12-11T08:39:04;6.45;;;3.83;;
39448;SDS011;25151;45.566;9.382;2022-12-11T08:42:05;4.25;;;3.85;;
39448;SDS011;25151;45.566;9.382;2022-12-11T08:45:06;7.18;;;3.70;;
39448;SDS011;25151;45.566;9.382;2022-12-11T08:48:07;4.75;;;3.60;;
39448;SDS011;25151;45.566;9.382;2022-12-11T08:51:12;8.10;;;4.07;;
39448;SDS011;25151;45.566;9.382;2022-12-11T08:54:14;6.40;;;4.03;;
39448;SDS011;25151;45.566;9.382;2022-12-11T08:57:15;7.22;;;4.20;;
39448;SDS011;25151;45.566;9.382;2022-12-11T09:00:16;7.57;;;4.13;;
39448;SDS011;25151;45.566;9.382;2022-12-11T09:03:17;7.68;;;4.30;;
39448;SDS011;25151;45.566;9.382;2022-12-11T09:06:19;8.45;;;4.15;;
39448;SDS011;25151;45.566;9.382;2022-12-11T09:09:21;4.93;;;3.80;;
39448;SDS011;25151;45.566;9.382;2022-12-11T09:12:22;6.82;;;3.92;;
39448;SDS011;25151;45.566;9.382;2022-12-11T09:15:23;6.22;;;3.97;;
39448;SDS011;25151;45.566;9.382;2022-12-11T09:18:24;6.38;;;4.47;;
39448;SDS011;25151;45.566;9.382;2022-12-11T09:21:27;7.03;;;3.47;;
39448;SDS011;25151;45.566;9.382;2022-12-11T09:24:29;7.43;;;3.55;;
39448;SDS011;25151;45.566;9.382;2022-12-11T09:27:29;8.88;;;4.00;;
39448;SDS011;25151;45.566;9.382;2022-12-11T09:30:30;11.20;;;5.07;;
39448;SDS011;25151;45.566;9.382;2022-12-11T09:33:31;7.10;;;3.78;;
39448;SDS011;25151;45.566;9.382;2022-12-11T09:36:32;7.93;;;4.70;;
39448;SDS011;25151;45.566;9.382;2022-12-11T09:39:33;4.30;;;3.35;;
39448;SDS011;25151;45.566;9.382;2022-12-11T09:42:52;7.40;;;4.07;;
39448;SDS011;25151;45.566;9.382;2022-12-11T09:45:58;4.82;;;3.70;;
39448;SDS011;25151;45.566;9.382;2022-12-11T09:49:03;8.55;;;3.88;;
39448;SDS011;25151;45.566;9.382;2022-12-11T09:52:22;5.70;;;3.53;;
39448;SDS011;25151;45.566;9.382;2022-12-11T09:55:40;8.30;;;3.47;;
39448;SDS011;25151;45.566;9.382;2022-12-11T09:58:54;6.28;;;4.00;;
39448;SDS011;25151;45.566;9.382;2022-12-11T10:02:09;6.75;;;3.53;;
39448;SDS011;25151;45.566;9.382;2022-12-11T10:15:33;6.25;;;3.47;;
39448;SDS011;25151;45.566;9.382;2022-12-11T10:18:40;5.20;;;3.78;;
39448;SDS011;25151;45.566;9.382;2022-12-11T10:21:41;6.43;;;3.20;;
39448;SDS011;25151;45.566;9.382;2022-12-11T10:24:44;5.13;;;3.55;;
39448;SDS011;25151;45.566;9.382;2022-12-11T10:34:34;5.50;;;3.58;;
39448;SDS011;25151;45.566;9.382;2022-12-11T10:37:39;6.72;;;3.17;;
39448;SDS011;25151;45.566;9.382;2022-12-11T10:40:43;5.28;;;4.00;;
39448;SDS011;25151;45.566;9.382;2022-12-11T10:43:47;7.20;;;3.83;;
39448;SDS011;25151;45.566;9.382;2022-12-11T10:50:21;4.72;;;3.00;;
39448;SDS011;25151;45.566;9.382;2022-12-11T10:53:24;8.88;;;4.03;;
39448;SDS011;25151;45.566;9.382;2022-12-11T10:56:29;6.60;;;3.85;;
39448;SDS011;25151;45.566;9.382;2022-12-11T11:00:05;5.55;;;3.38;;
39448;SDS011;25151;45.566;9.382;2022-12-11T11:03:00;7.40;;;3.95;;
39448;SDS011;25151;45.566;9.382;2022-12-11T11:06:06;7.30;;;3.28;;
39448;SDS011;25151;45.566;9.382;2022-12-11T11:09:34;5.40;;;3.50;;
39448;SDS011;25151;45.566;9.382;2022-12-11T11:12:45;4.80;;;3.38;;
39448;SDS011;25151;45.566;9.382;2022-12-11T11:15:47;9.25;;;3.45;;
39448;SDS011;25151;45.566;9.382;2022-12-11T11:18:50;6.72;;;3.85;;
39448;SDS011;25151;45.566;9.382;2022-12-11T11:21:57;5.25;;;3.75;;
39448;SDS011;25151;45.566;9.382;2022-12-11T11:25:01;9.90;;;3.50;;
39448;SDS011;25151;45.566;9.382;2022-12-11T11:28:05;3.97;;;3.28;;
39448;SDS011;25151;45.566;9.382;2022-12-11T11:31:09;6.85;;;3.92;;
39448;SDS011;25151;45.566;9.382;2022-12-11T11:34:17;6.50;;;3.10;;
39448;SDS011;25151;45.566;9.382;2022-12-11T11:37:23;6.03;;;3.63;;
39448;SDS011;25151;45.566;9.382;2022-12-11T11:40:30;5.60;;;3.40;;
39448;SDS011;25151;45.566;9.382;2022-12-11T11:46:59;5.25;;;3.05;;
39448;SDS011;25151;45.566;9.382;2022-12-11T11:50:24;3.78;;;2.90;;
39448;SDS011;25151;45.566;9.382;2022-12-11T11:53:32;5.60;;;3.60;;
39448;SDS011;25151;45.566;9.382;2022-12-11T11:56:39;5.68;;;3.20;;
39448;SDS011;25151;45.566;9.382;2022-12-11T11:59:42;6.30;;;3.65;;
39448;SDS011;25151;45.566;9.382;2022-12-11T12:02:53;9.55;;;3.30;;
39448;SDS011;25151;45.566;9.382;2022-12-11T12:13:05;6.90;;;3.17;;
39448;SDS011;25151;45.566;9.382;2022-12-11T12:16:21;4.28;;;2.85;;
39448;SDS011;25151;45.566;9.382;2022-12-11T12:23:37;7.93;;;3.40;;
39448;SDS011;25151;45.566;9.382;2022-12-11T12:26:56;4.47;;;2.72;;
39448;SDS011;25151;45.566;9.382;2022-12-11T12:30:15;4.22;;;2.72;;
39448;SDS011;25151;45.566;9.382;2022-12-11T12:33:27;3.50;;;3.03;;
39448;SDS011;25151;45.566;9.382;2022-12-11T12:37:16;6.45;;;3.63;;
39448;SDS011;25151;45.566;9.382;2022-12-11T12:43:27;3.85;;;2.83;;
39448;SDS011;25151;45.566;9.382;2022-12-11T12:49:47;8.77;;;2.85;;
39448;SDS011;25151;45.566;9.382;2022-12-11T12:52:50;5.05;;;2.97;;
39448;SDS011;25151;45.566;9.382;2022-12-11T12:55:53;3.00;;;2.40;;
39448;SDS011;25151;45.566;9.382;2022-12-11T12:58:55;6.22;;;2.88;;
39448;SDS011;25151;45.566;9.382;2022-12-11T13:01:56;5.80;;;3.17;;
39448;SDS011;25151;45.566;9.382;2022-12-11T13:05:05;3.70;;;2.85;;
39448;SDS011;25151;45.566;9.382;2022-12-11T13:08:23;6.03;;;2.95;;
39448;SDS011;25151;45.566;9.382;2022-12-11T13:11:31;4.25;;;2.80;;
39448;SDS011;25151;45.566;9.382;2022-12-11T13:14:34;4.82;;;2.97;;
39448;SDS011;25151;45.566;9.382;2022-12-11T13:17:35;4.13;;;2.75;;
39448;SDS011;25151;45.566;9.382;2022-12-11T13:20:44;4.20;;;3.03;;
39448;SDS011;25151;45.566;9.382;2022-12-11T13:23:47;3.28;;;2.45;;
39448;SDS011;25151;45.566;9.382;2022-12-11T13:26:48;3.95;;;2.97;;
39448;SDS011;25151;45.566;9.382;2022-12-11T13:29:50;4.88;;;2.53;;
39448;SDS011;25151;45.566;9.382;2022-12-11T13:32:57;2.92;;;2.60;;
39448;SDS011;25151;45.566;9.382;2022-12-11T13:36:23;5.43;;;3.20;;
39448;SDS011;25151;45.566;9.382;2022-12-11T13:39:34;6.90;;;3.25;;
39448;SDS011;25151;45.566;9.382;2022-12-11T13:45:49;3.78;;;2.60;;
39448;SDS011;25151;45.566;9.382;2022-12-11T13:48:59;4.13;;;2.60;;
39448;SDS011;25151;45.566;9.382;2022-12-11T13:52:02;3.13;;;2.58;;
39448;SDS011;25151;45.566;9.382;2022-12-11T13:55:11;4.07;;;2.75;;
39448;SDS011;25151;45.566;9.382;2022-12-11T13:58:21;5.10;;;3.22;;
39448;SDS011;25151;45.566;9.382;2022-12-11T14:01:26;3.58;;;2.45;;
39448;SDS011;25151;45.566;9.382;2022-12-11T14:04:36;3.92;;;2.45;;
39448;SDS011;25151;45.566;9.382;2022-12-11T14:07:39;3.50;;;3.03;;
39448;SDS011;25151;45.566;9.382;2022-12-11T14:10:42;4.38;;;2.75;;
39448;SDS011;25151;45.566;9.382;2022-12-11T14:13:43;3.67;;;2.90;;
39448;SDS011;25151;45.566;9.382;2022-12-11T14:16:48;3.53;;;2.78;;
39448;SDS011;25151;45.566;9.382;2022-12-11T14:19:50;3.50;;;2.80;;
39448;SDS011;25151;45.566;9.382;2022-12-11T14:26:22;4.20;;;2.78;;
39448;SDS011;25151;45.566;9.382;2022-12-11T14:29:29;4.28;;;2.63;;
39448;SDS011;25151;45.566;9.382;2022-12-11T14:32:34;3.13;;;2.42;;
39448;SDS011;25151;45.566;9.382;2022-12-11T14:35:39;3.03;;;2.38;;
39448;SDS011;25151;45.566;9.382;2022-12-11T14:38:51;3.10;;;2.22;;
39448;SDS011;25151;45.566;9.382;2022-12-11T14:41:57;3.13;;;2.72;;
39448;SDS011;25151;45.566;9.382;2022-12-11T14:45:22;5.13;;;2.60;;
39448;SDS011;25151;45.566;9.382;2022-12-11T14:48:32;3.03;;;2.40;;
39448;SDS011;25151;45.566;9.382;2022-12-11T14:51:38;3.88;;;2.67;;
39448;SDS011;25151;45.566;9.382;2022-12-11T14:54:41;4.95;;;2.63;;
39448;SDS011;25151;45.566;9.382;2022-12-11T14:57:46;2.78;;;2.42;;
39448;SDS011;25151;45.566;9.382;2022-12-11T15:00:57;4.47;;;2.60;;
39448;SDS011;25151;45.566;9.382;2022-12-11T15:07:23;3.08;;;2.40;;
39448;SDS011;25151;45.566;9.382;2022-12-11T15:10:27;3.55;;;2.42;;
39448;SDS011;25151;45.566;9.382;2022-12-11T15:13:35;3.03;;;2.42;;
39448;SDS011;25151;45.566;9.382;2022-12-11T15:16:41;5.38;;;2.50;;
39448;SDS011;25151;45.566;9.382;2022-12-11T15:19:44;2.95;;;2.40;;
39448;SDS011;25151;45.566;9.382;2022-12-11T15:22:50;3.78;;;3.05;;
39448;SDS011;25151;45.566;9.382;2022-12-11T15:25:56;2.90;;;2.53;;
39448;SDS011;25151;45.566;9.382;2022-12-11T15:28:59;5.20;;;2.25;;
39448;SDS011;25151;45.566;9.382;2022-12-11T15:32:03;3.13;;;2.30;;
39448;SDS011;25151;45.566;9.382;2022-12-11T15:35:24;3.67;;;2.30;;
39448;SDS011;25151;45.566;9.382;2022-12-11T15:38:28;4.93;;;2.67;;
39448;SDS011;25151;45.566;9.382;2022-12-11T15:41:39;3.08;;;2.10;;
39448;SDS011;25151;45.566;9.382;2022-12-11T15:44:58;2.95;;;2.10;;
39448;SDS011;25151;45.566;9.382;2022-12-11T15:48:00;4.05;;;2.40;;
39448;SDS011;25151;45.566;9.382;2022-12-11T15:51:00;3.25;;;2.45;;
39448;SDS011;25151;45.566;9.382;2022-12-11T15:54:02;3.25;;;2.30;;
39448;SDS011;25151;45.566;9.382;2022-12-11T15:57:05;2.97;;;2.30;;
39448;SDS011;25151;45.566;9.382;2022-12-11T16:00:15;2.58;;;2.20;;
39448;SDS011;25151;45.566;9.382;2022-12-11T16:03:18;2.53;;;2.03;;
39448;SDS011;25151;45.566;9.382;2022-12-11T16:06:20;2.63;;;2.08;;
39448;SDS011;25151;45.566;9.382;2022-12-11T16:09:21;3.15;;;2.20;;
39448;SDS011;25151;45.566;9.382;2022-12-11T16:12:21;2.60;;;1.92;;
39448;SDS011;25151;45.566;9.382;2022-12-11T16:15:22;3.45;;;2.10;;
39448;SDS011;25151;45.566;9.382;2022-12-11T16:18:23;2.80;;;2.38;;
39448;SDS011;25151;45.566;9.382;2022-12-11T16:21:25;2.92;;;2.20;;
39448;SDS011;25151;45.566;9.382;2022-12-11T16:24:26;2.45;;;2.00;;
39448;SDS011;25151;45.566;9.382;2022-12-11T16:27:27;3.25;;;2.13;;
39448;SDS011;25151;45.566;9.382;2022-12-11T16:30:28;3.70;;;2.72;;
39448;SDS011;25151;45.566;9.382;2022-12-11T16:41:26;3.08;;;2.25;;
39448;SDS011;25151;45.566;9.382;2022-12-11T16:44:27;2.63;;;1.92;;
39448;SDS011;25151;45.566;9.382;2022-12-11T16:47:28;2.85;;;1.90;;
39448;SDS011;25151;45.566;9.382;2022-12-11T16:50:29;3.33;;;2.42;;
39448;SDS011;25151;45.566;9.382;2022-12-11T16:53:31;3.58;;;1.95;;
39448;SDS011;25151;45.566;9.382;2022-12-11T16:56:31;3.63;;;2.22;;
39448;SDS011;25151;45.566;9.382;2022-12-11T16:59:33;2.92;;;2.05;;
39448;SDS011;25151;45.566;9.382;2022-12-11T17:02:34;3.00;;;2.15;;
39448;SDS011;25151;45.566;9.382;2022-12-11T17:05:37;2.70;;;2.20;;
39448;SDS011;25151;45.566;9.382;2022-12-11T17:08:38;4.55;;;1.98;;
39448;SDS011;25151;45.566;9.382;2022-12-11T17:11:41;2.45;;;1.88;;
39448;SDS011;25151;45.566;9.382;2022-12-11T17:14:42;3.25;;;2.45;;
39448;SDS011;25151;45.566;9.382;2022-12-11T17:17:43;2.90;;;2.22;;
39448;SDS011;25151;45.566;9.382;2022-12-11T17:20:46;2.75;;;1.88;;
39448;SDS011;25151;45.566;9.382;2022-12-11T17:23:47;2.50;;;2.20;;
39448;SDS011;25151;45.566;9.382;2022-12-11T17:26:48;2.83;;;1.67;;
39448;SDS011;25151;45.566;9.382;2022-12-11T17:29:48;2.53;;;1.75;;
39448;SDS011;25151;45.566;9.382;2022-12-11T17:32:49;3.95;;;2.08;;
39448;SDS011;25151;45.566;9.382;2022-12-11T17:35:50;2.55;;;1.95;;
39448;SDS011;25151;45.566;9.382;2022-12-11T17:38:51;3.53;;;2.08;;
39448;SDS011;25151;45.566;9.382;2022-12-11T17:41:53;4.22;;;2.17;;
39448;SDS011;25151;45.566;9.382;2022-12-11T17:44:54;4.80;;;1.85;;
39448;SDS011;25151;45.566;9.382;2022-12-11T17:47:54;2.20;;;1.63;;
39448;SDS011;25151;45.566;9.382;2022-12-11T17:50:55;2.58;;;1.80;;
39448;SDS011;25151;45.566;9.382;2022-12-11T17:53:57;2.30;;;1.90;;
39448;SDS011;25151;45.566;9.382;2022-12-11T17:56:59;2.38;;;2.03;;
39448;SDS011;25151;45.566;9.382;2022-12-11T17:59:59;2.58;;;1.90;;
39448;SDS011;25151;45.566;9.382;2022-12-11T18:03:00;1.92;;;1.40;;
39448;SDS011;25151;45.566;9.382;2022-12-11T18:06:03;1.83;;;1.63;;
39448;SDS011;25151;45.566;9.382;2022-12-11T18:09:07;3.35;;;1.92;;
39448;SDS011;25151;45.566;9.382;2022-12-11T18:12:08;2.42;;;1.75;;
39448;SDS011;25151;45.566;9.382;2022-12-11T18:15:09;2.72;;;1.30;;
39448;SDS011;25151;45.566;9.382;2022-12-11T18:18:10;3.10;;;1.63;;
39448;SDS011;25151;45.566;9.382;2022-12-11T18:21:15;3.88;;;1.90;;
39448;SDS011;25151;45.566;9.382;2022-12-11T18:24:18;2.30;;;2.00;;
39448;SDS011;25151;45.566;9.382;2022-12-11T18:27:20;3.88;;;2.20;;
39448;SDS011;25151;45.566;9.382;2022-12-11T18:30:21;4.53;;;2.10;;
39448;SDS011;25151;45.566;9.382;2022-12-11T18:33:23;2.10;;;1.80;;
39448;SDS011;25151;45.566;9.382;2022-12-11T18:36:24;2.00;;;1.77;;
39448;SDS011;25151;45.566;9.382;2022-12-11T18:39:25;3.20;;;1.95;;
39448;SDS011;25151;45.566;9.382;2022-12-11T18:42:26;2.78;;;1.98;;
39448;SDS011;25151;45.566;9.382;2022-12-11T18:45:27;3.97;;;1.80;;
39448;SDS011;25151;45.566;9.382;2022-12-11T18:48:29;2.63;;;1.70;;
39448;SDS011;25151;45.566;9.382;2022-12-11T18:51:30;2.10;;;1.70;;
39448;SDS011;25151;45.566;9.382;2022-12-11T18:54:30;1.88;;;1.63;;
39448;SDS011;25151;45.566;9.382;2022-12-11T18:57:31;3.50;;;1.88;;
39448;SDS011;25151;45.566;9.382;2022-12-11T19:00:32;2.38;;;1.90;;
39448;SDS011;25151;45.566;9.382;2022-12-11T19:03:33;2.97;;;1.70;;
39448;SDS011;25151;45.566;9.382;2022-12-11T19:06:34;6.88;;;1.70;;
39448;SDS011;25151;45.566;9.382;2022-12-11T19:09:35;5.82;;;2.15;;
39448;SDS011;25151;45.566;9.382;2022-12-11T19:12:36;2.50;;;1.95;;
39448;SDS011;25151;45.566;9.382;2022-12-11T19:15:37;2.70;;;1.60;;
39448;SDS011;25151;45.566;9.382;2022-12-11T19:18:39;2.15;;;1.52;;
39448;SDS011;25151;45.566;9.382;2022-12-11T19:21:40;3.80;;;1.70;;
39448;SDS011;25151;45.566;9.382;2022-12-11T19:24:41;4.07;;;1.48;;
39448;SDS011;25151;45.566;9.382;2022-12-11T19:27:44;2.25;;;2.05;;
39448;SDS011;25151;45.566;9.382;2022-12-11T19:30:47;2.80;;;1.65;;
39448;SDS011;25151;45.566;9.382;2022-12-11T19:33:50;2.88;;;1.80;;
39448;SDS011;25151;45.566;9.382;2022-12-11T19:36:51;2.72;;;1.75;;